sensor_id;sensor_type;location;lat;lon;timestamp;pressure;altitude;pressure_sealevel;temperature;humidity
42169;BME280;27838;43.858;25.974;2023-04-02T00:01:20;99789.47;;;13.18;64.83
42169;BME280;27838;43.858;25.974;2023-04-02T00:08:55;99787.47;;;13.26;64.13
42169;BME280;27838;43.858;25.974;2023-04-02T00:11:36;99797.84;;;13.31;63.83
42169;BME280;27838;43.858;25.974;2023-04-02T00:14:14;99786.53;;;13.30;63.79
42169;BME280;27838;43.858;25.974;2023-04-02T00:16:44;99782.03;;;13.37;62.95
42169;BME280;27838;43.858;25.974;2023-04-02T00:19:18;99785.56;;;13.34;63.19
42169;BME280;27838;43.858;25.974;2023-04-02T00:21:49;99793.16;;;13.44;63.21
42169;BME280;27838;43.858;25.974;2023-04-02T00:24:20;99795.88;;;13.40;63.55
42169;BME280;27838;43.858;25.974;2023-04-02T00:26:51;99794.97;;;13.41;63.42
42169;BME280;27838;43.858;25.974;2023-04-02T00:29:19;99795.06;;;13.38;63.27
42169;BME280;27838;43.858;25.974;2023-04-02T00:31:48;99802.19;;;13.33;62.88
42169;BME280;27838;43.858;25.974;2023-04-02T00:34:26;99789.13;;;13.32;63.65
42169;BME280;27838;43.858;25.974;2023-04-02T00:36:54;99797.00;;;13.30;63.52
42169;BME280;27838;43.858;25.974;2023-04-02T00:39:36;99801.13;;;13.40;63.34
42169;BME280;27838;43.858;25.974;2023-04-02T00:42:03;99800.91;;;13.48;62.78
42169;BME280;27838;43.858;25.974;2023-04-02T00:44:37;99798.25;;;13.50;62.65
42169;BME280;27838;43.858;25.974;2023-04-02T00:47:34;99782.69;;;13.44;62.73
42169;BME280;27838;43.858;25.974;2023-04-02T00:52:43;99804.56;;;13.43;63.23
42169;BME280;27838;43.858;25.974;2023-04-02T00:55:15;99797.56;;;13.43;63.19
42169;BME280;27838;43.858;25.974;2023-04-02T00:57:43;99793.16;;;13.44;62.99
42169;BME280;27838;43.858;25.974;2023-04-02T01:00:20;99798.25;;;13.50;62.62
42169;BME280;27838;43.858;25.974;2023-04-02T01:05:50;99793.63;;;13.59;62.20
42169;BME280;27838;43.858;25.974;2023-04-02T01:22:26;99800.88;;;13.50;63.05
42169;BME280;27838;43.858;25.974;2023-04-02T01:24:59;99801.75;;;13.49;62.71
42169;BME280;27838;43.858;25.974;2023-04-02T01:27:37;99807.00;;;13.49;62.73
42169;BME280;27838;43.858;25.974;2023-04-02T01:30:06;99812.97;;;13.54;62.50
42169;BME280;27838;43.858;25.974;2023-04-02T01:32:36;99812.94;;;13.55;63.01
42169;BME280;27838;43.858;25.974;2023-04-02T01:35:03;99798.03;;;13.57;62.48
42169;BME280;27838;43.858;25.974;2023-04-02T01:40:05;99798.88;;;13.59;62.49
42169;BME280;27838;43.858;25.974;2023-04-02T01:42:44;99788.50;;;13.55;63.04
42169;BME280;27838;43.858;25.974;2023-04-02T01:45:16;99789.19;;;13.63;62.59
42169;BME280;27838;43.858;25.974;2023-04-02T01:47:44;99789.31;;;13.57;62.81
42169;BME280;27838;43.858;25.974;2023-04-02T01:50:32;99804.47;;;13.46;63.51
42169;BME280;27838;43.858;25.974;2023-04-02T01:53:07;99802.09;;;13.36;63.60
42169;BME280;27838;43.858;25.974;2023-04-02T01:56:07;99807.41;;;13.33;63.94
42169;BME280;27838;43.858;25.974;2023-04-02T01:58:34;99808.22;;;13.35;63.37
42169;BME280;27838;43.858;25.974;2023-04-02T02:01:23;99816.09;;;13.35;63.26
42169;BME280;27838;43.858;25.974;2023-04-02T02:03:49;99818.66;;;13.37;63.54
42169;BME280;27838;43.858;25.974;2023-04-02T02:06:17;99817.81;;;13.35;63.29
42169;BME280;27838;43.858;25.974;2023-04-02T02:09:03;99810.06;;;13.32;63.10
42169;BME280;27838;43.858;25.974;2023-04-02T02:11:32;99816.97;;;13.34;62.96
42169;BME280;27838;43.858;25.974;2023-04-02T02:14:05;99810.97;;;13.29;62.86
42169;BME280;27838;43.858;25.974;2023-04-02T02:16:37;99810.94;;;13.31;62.71
42169;BME280;27838;43.858;25.974;2023-04-02T02:19:37;99803.97;;;13.31;62.57
42169;BME280;27838;43.858;25.974;2023-04-02T02:22:27;99817.94;;;13.30;63.08
42169;BME280;27838;43.858;25.974;2023-04-02T02:24:57;99808.53;;;13.23;62.39
42169;BME280;27838;43.858;25.974;2023-04-02T02:32:29;99819.88;;;13.22;62.35
42169;BME280;27838;43.858;25.974;2023-04-02T02:35:06;99822.56;;;13.19;62.28
42169;BME280;27838;43.858;25.974;2023-04-02T02:37:39;99818.25;;;13.18;62.10
42169;BME280;27838;43.858;25.974;2023-04-02T02:40:14;99828.00;;;13.11;62.09
42169;BME280;27838;43.858;25.974;2023-04-02T02:42:47;99833.22;;;13.11;62.70
42169;BME280;27838;43.858;25.974;2023-04-02T02:45:21;99835.88;;;13.10;62.65
42169;BME280;27838;43.858;25.974;2023-04-02T02:47:50;99837.69;;;13.08;62.53
42169;BME280;27838;43.858;25.974;2023-04-02T02:50:21;99833.38;;;13.05;62.53
42169;BME280;27838;43.858;25.974;2023-04-02T02:52:53;99832.69;;;12.98;62.71
42169;BME280;27838;43.858;25.974;2023-04-02T02:55:24;99837.91;;;12.98;63.08
42169;BME280;27838;43.858;25.974;2023-04-02T02:57:57;99839.78;;;12.93;62.62
42169;BME280;27838;43.858;25.974;2023-04-02T03:00:25;99841.50;;;12.93;62.66
42169;BME280;27838;43.858;25.974;2023-04-02T03:02:53;99851.94;;;12.94;62.97
42169;BME280;27838;43.858;25.974;2023-04-02T03:05:23;99850.34;;;12.89;63.33
42169;BME280;27838;43.858;25.974;2023-04-02T03:07:54;99857.09;;;12.97;63.03
42169;BME280;27838;43.858;25.974;2023-04-02T03:24:24;99859.66;;;13.36;62.07
42169;BME280;27838;43.858;25.974;2023-04-02T03:26:59;99864.25;;;13.27;62.14
42169;BME280;27838;43.858;25.974;2023-04-02T03:29:32;99863.44;;;13.25;62.46
42169;BME280;27838;43.858;25.974;2023-04-02T03:32:04;99865.06;;;13.29;62.39
42169;BME280;27838;43.858;25.974;2023-04-02T03:34:35;99862.56;;;13.24;62.33
42169;BME280;27838;43.858;25.974;2023-04-02T03:37:13;99864.31;;;13.23;62.63
42169;BME280;27838;43.858;25.974;2023-04-02T03:39:43;99860.88;;;13.21;62.98
42169;BME280;27838;43.858;25.974;2023-04-02T03:42:17;99874.66;;;13.30;62.69
42169;BME280;27838;43.858;25.974;2023-04-02T03:45:06;99872.88;;;13.32;62.57
42169;BME280;27838;43.858;25.974;2023-04-02T03:47:39;99874.47;;;13.37;62.58
42169;BME280;27838;43.858;25.974;2023-04-02T03:51:13;99883.91;;;13.45;61.86
42169;BME280;27838;43.858;25.974;2023-04-02T03:53:07;99884.63;;;13.50;61.87
42169;BME280;27838;43.858;25.974;2023-04-02T03:55:36;99885.69;;;13.43;62.20
42169;BME280;27838;43.858;25.974;2023-04-02T03:58:27;99888.28;;;13.44;61.77
42169;BME280;27838;43.858;25.974;2023-04-02T04:01:18;99891.81;;;13.41;61.87
42169;BME280;27838;43.858;25.974;2023-04-02T04:03:50;99891.81;;;13.41;61.76
42169;BME280;27838;43.858;25.974;2023-04-02T04:06:27;99903.09;;;13.44;62.06
42169;BME280;27838;43.858;25.974;2023-04-02T04:09:34;99908.41;;;13.42;61.66
42169;BME280;27838;43.858;25.974;2023-04-02T04:12:34;99904.13;;;13.38;61.46
42169;BME280;27838;43.858;25.974;2023-04-02T04:15:33;99914.63;;;13.36;61.69
42169;BME280;27838;43.858;25.974;2023-04-02T04:18:42;99903.41;;;13.31;61.83
42169;BME280;27838;43.858;25.974;2023-04-02T04:21:25;99910.47;;;13.26;62.37
42169;BME280;27838;43.858;25.974;2023-04-02T04:23:56;99913.16;;;13.25;62.98
42169;BME280;27838;43.858;25.974;2023-04-02T04:26:37;99912.28;;;13.24;62.54
42169;BME280;27838;43.858;25.974;2023-04-02T04:29:14;99930.72;;;13.19;63.45
42169;BME280;27838;43.858;25.974;2023-04-02T04:31:48;99934.25;;;13.17;63.72
42169;BME280;27838;43.858;25.974;2023-04-02T04:34:25;99933.44;;;13.15;64.79
42169;BME280;27838;43.858;25.974;2023-04-02T04:37:04;99931.75;;;13.12;65.54
42169;BME280;27838;43.858;25.974;2023-04-02T04:39:53;99936.03;;;13.16;65.89
42169;BME280;27838;43.858;25.974;2023-04-02T04:42:27;99936.81;;;13.20;65.99
42169;BME280;27838;43.858;25.974;2023-04-02T04:47:56;99945.63;;;13.16;66.33
42169;BME280;27838;43.858;25.974;2023-04-02T04:50:37;99940.34;;;13.17;66.28
42169;BME280;27838;43.858;25.974;2023-04-02T04:53:11;99940.25;;;13.22;66.23
42169;BME280;27838;43.858;25.974;2023-04-02T04:55:42;99953.31;;;13.22;65.60
42169;BME280;27838;43.858;25.974;2023-04-02T05:00:55;99959.38;;;13.24;65.76
42169;BME280;27838;43.858;25.974;2023-04-02T05:06:07;99960.25;;;13.25;65.87
42169;BME280;27838;43.858;25.974;2023-04-02T05:08:37;99975.03;;;13.26;65.84
42169;BME280;27838;43.858;25.974;2023-04-02T05:11:27;99977.53;;;13.33;65.70
42169;BME280;27838;43.858;25.974;2023-04-02T05:13:59;99991.31;;;13.40;65.15
42169;BME280;27838;43.858;25.974;2023-04-02T05:16:35;99991.38;;;13.38;65.52
42169;BME280;27838;43.858;25.974;2023-04-02T05:19:13;99997.28;;;13.47;65.83
42169;BME280;27838;43.858;25.974;2023-04-02T05:21:57;100001.56;;;13.51;65.29
42169;BME280;27838;43.858;25.974;2023-04-02T05:27:11;100010.16;;;13.56;65.42
42169;BME280;27838;43.858;25.974;2023-04-02T05:29:43;100007.50;;;13.57;65.33
42169;BME280;27838;43.858;25.974;2023-04-02T05:32:34;100015.22;;;13.64;65.35
42169;BME280;27838;43.858;25.974;2023-04-02T05:35:02;100010.81;;;13.64;65.05
42169;BME280;27838;43.858;25.974;2023-04-02T05:37:31;100011.66;;;13.66;64.85
42169;BME280;27838;43.858;25.974;2023-04-02T05:40:04;100014.97;;;13.73;64.67
42169;BME280;27838;43.858;25.974;2023-04-02T05:42:39;100024.50;;;13.77;64.38
42169;BME280;27838;43.858;25.974;2023-04-02T05:45:30;100025.44;;;13.74;63.67
42169;BME280;27838;43.858;25.974;2023-04-02T05:48:01;100031.47;;;13.76;63.46
42169;BME280;27838;43.858;25.974;2023-04-02T05:50:35;100034.09;;;13.76;64.05
42169;BME280;27838;43.858;25.974;2023-04-02T05:53:51;100043.72;;;13.76;63.74
42169;BME280;27838;43.858;25.974;2023-04-02T05:56:19;100041.88;;;13.79;63.56
42169;BME280;27838;43.858;25.974;2023-04-02T05:58:53;100036.63;;;13.81;63.53
42169;BME280;27838;43.858;25.974;2023-04-02T06:01:47;100039.31;;;13.78;63.44
42169;BME280;27838;43.858;25.974;2023-04-02T06:04:26;100039.44;;;13.73;63.83
42169;BME280;27838;43.858;25.974;2023-04-02T06:07:02;100047.16;;;13.78;63.08
42169;BME280;27838;43.858;25.974;2023-04-02T06:09:37;100040.91;;;13.84;62.86
42169;BME280;27838;43.858;25.974;2023-04-02T06:12:30;100047.88;;;13.85;62.65
42169;BME280;27838;43.858;25.974;2023-04-02T06:15:00;100054.00;;;13.84;62.54
42169;BME280;27838;43.858;25.974;2023-04-02T06:17:27;100056.63;;;13.84;62.42
42169;BME280;27838;43.858;25.974;2023-04-02T06:19:55;100050.63;;;13.78;62.40
42169;BME280;27838;43.858;25.974;2023-04-02T06:22:34;100061.19;;;13.77;62.07
42169;BME280;27838;43.858;25.974;2023-04-02T06:25:05;100061.19;;;13.77;61.82
42169;BME280;27838;43.858;25.974;2023-04-02T06:27:36;100061.06;;;13.80;61.66
42169;BME280;27838;43.858;25.974;2023-04-02T06:30:05;100062.75;;;13.84;61.54
42169;BME280;27838;43.858;25.974;2023-04-02T06:32:39;100079.03;;;13.97;61.76
42169;BME280;27838;43.858;25.974;2023-04-02T06:35:11;100074.72;;;13.94;61.10
42169;BME280;27838;43.858;25.974;2023-04-02T06:37:39;100068.63;;;13.92;61.40
42169;BME280;27838;43.858;25.974;2023-04-02T06:40:27;100078.88;;;14.03;60.92
42169;BME280;27838;43.858;25.974;2023-04-02T06:42:59;100080.59;;;14.04;61.05
42169;BME280;27838;43.858;25.974;2023-04-02T06:45:32;100086.75;;;14.03;61.31
42169;BME280;27838;43.858;25.974;2023-04-02T06:48:01;100085.78;;;14.06;61.10
42169;BME280;27838;43.858;25.974;2023-04-02T06:50:56;100084.00;;;14.08;61.60
42169;BME280;27838;43.858;25.974;2023-04-02T06:53:37;100085.75;;;14.07;61.70
42169;BME280;27838;43.858;25.974;2023-04-02T06:56:39;100092.50;;;14.18;61.50
42169;BME280;27838;43.858;25.974;2023-04-02T06:59:08;100099.41;;;14.20;61.48
42169;BME280;27838;43.858;25.974;2023-04-02T07:01:44;100101.19;;;14.20;61.22
42169;BME280;27838;43.858;25.974;2023-04-02T07:04:12;100089.81;;;14.21;61.48
42169;BME280;27838;43.858;25.974;2023-04-02T07:06:38;100095.94;;;14.20;61.45
42169;BME280;27838;43.858;25.974;2023-04-02T07:09:06;100087.84;;;14.29;61.33
42169;BME280;27838;43.858;25.974;2023-04-02T07:11:33;100105.06;;;14.39;60.62
42169;BME280;27838;43.858;25.974;2023-04-02T07:14:00;100110.16;;;14.45;60.66
42169;BME280;27838;43.858;25.974;2023-04-02T07:16:28;100101.22;;;14.52;60.13
42169;BME280;27838;43.858;25.974;2023-04-02T07:18:55;100105.59;;;14.52;60.55
42169;BME280;27838;43.858;25.974;2023-04-02T07:21:24;100109.94;;;14.53;60.57
42169;BME280;27838;43.858;25.974;2023-04-02T07:23:50;100105.47;;;14.57;59.93
42169;BME280;27838;43.858;25.974;2023-04-02T07:26:20;100118.47;;;14.63;60.25
42169;BME280;27838;43.858;25.974;2023-04-02T07:28:48;100101.91;;;14.61;59.67
42169;BME280;27838;43.858;25.974;2023-04-02T07:31:17;100119.22;;;14.68;60.62
42169;BME280;27838;43.858;25.974;2023-04-02T07:33:44;100119.00;;;14.76;60.65
42169;BME280;27838;43.858;25.974;2023-04-02T07:36:21;100132.06;;;14.77;60.66
42169;BME280;27838;43.858;25.974;2023-04-02T07:38:49;100125.09;;;14.76;59.75
42169;BME280;27838;43.858;25.974;2023-04-02T07:41:16;100129.41;;;14.79;60.22
42169;BME280;27838;43.858;25.974;2023-04-02T07:43:44;100127.59;;;14.81;60.11
42169;BME280;27838;43.858;25.974;2023-04-02T07:46:12;100130.13;;;14.85;60.37
42169;BME280;27838;43.858;25.974;2023-04-02T07:48:41;100131.81;;;14.86;59.57
42169;BME280;27838;43.858;25.974;2023-04-02T07:51:24;100135.19;;;14.91;60.02
42169;BME280;27838;43.858;25.974;2023-04-02T07:53:52;100141.44;;;14.87;59.65
42169;BME280;27838;43.858;25.974;2023-04-02T07:56:20;100143.97;;;14.90;59.53
42169;BME280;27838;43.858;25.974;2023-04-02T07:58:47;100131.81;;;14.86;58.69
42169;BME280;27838;43.858;25.974;2023-04-02T08:01:19;100143.97;;;14.90;59.19
42169;BME280;27838;43.858;25.974;2023-04-02T08:03:48;100138.53;;;14.97;58.68
42169;BME280;27838;43.858;25.974;2023-04-02T08:06:15;100137.72;;;14.95;58.76
42169;BME280;27838;43.858;25.974;2023-04-02T08:08:41;100135.69;;;15.04;58.42
42169;BME280;27838;43.858;25.974;2023-04-02T08:11:08;100126.88;;;15.07;58.92
42169;BME280;27838;43.858;25.974;2023-04-02T08:13:35;100133.66;;;15.16;58.48
42169;BME280;27838;43.858;25.974;2023-04-02T08:16:03;100134.25;;;15.25;58.28
42169;BME280;27838;43.858;25.974;2023-04-02T08:18:30;100134.03;;;15.33;57.77
42169;BME280;27838;43.858;25.974;2023-04-02T08:20:57;100135.59;;;15.39;57.82
42169;BME280;27838;43.858;25.974;2023-04-02T08:23:25;100145.06;;;15.44;57.51
42169;BME280;27838;43.858;25.974;2023-04-02T08:25:52;100146.78;;;15.45;57.37
42169;BME280;27838;43.858;25.974;2023-04-02T08:28:20;100143.34;;;15.43;57.23
42169;BME280;27838;43.858;25.974;2023-04-02T08:30:47;100148.44;;;15.48;57.06
42169;BME280;27838;43.858;25.974;2023-04-02T08:33:15;100147.66;;;15.46;56.98
42169;BME280;27838;43.858;25.974;2023-04-02T08:35:43;100149.28;;;15.50;57.21
42169;BME280;27838;43.858;25.974;2023-04-02T08:38:13;100156.25;;;15.51;57.17
42169;BME280;27838;43.858;25.974;2023-04-02T08:40:43;100152.53;;;15.58;57.08
42169;BME280;27838;43.858;25.974;2023-04-02T08:43:35;100163.16;;;15.55;57.08
42169;BME280;27838;43.858;25.974;2023-04-02T08:48:50;100159.69;;;15.53;57.50
42169;BME280;27838;43.858;25.974;2023-04-02T08:51:27;100159.44;;;15.62;57.06
42169;BME280;27838;43.858;25.974;2023-04-02T08:54:01;100159.06;;;15.76;56.71
42169;BME280;27838;43.858;25.974;2023-04-02T08:57:03;100152.59;;;15.86;57.17
42169;BME280;27838;43.858;25.974;2023-04-02T08:59:37;100156.91;;;15.89;56.93
42169;BME280;27838;43.858;25.974;2023-04-02T09:04:49;100158.25;;;16.02;56.56
42169;BME280;27838;43.858;25.974;2023-04-02T09:07:16;100159.56;;;16.16;55.76
42169;BME280;27838;43.858;25.974;2023-04-02T09:09:46;100162.13;;;16.17;55.58
42169;BME280;27838;43.858;25.974;2023-04-02T09:12:20;100155.94;;;16.20;54.83
42169;BME280;27838;43.858;25.974;2023-04-02T09:17:26;100146.63;;;16.10;55.31
42169;BME280;27838;43.858;25.974;2023-04-02T09:20:15;100155.19;;;16.16;55.14
42169;BME280;27838;43.858;25.974;2023-04-02T09:22:47;100156.75;;;16.22;55.19
42169;BME280;27838;43.858;25.974;2023-04-02T09:25:23;100161.75;;;16.30;54.28
42169;BME280;27838;43.858;25.974;2023-04-02T09:27:53;100164.06;;;16.39;54.19
42169;BME280;27838;43.858;25.974;2023-04-02T09:33:06;100172.53;;;16.49;53.39
42169;BME280;27838;43.858;25.974;2023-04-02T09:35:53;100173.94;;;16.59;53.48
42169;BME280;27838;43.858;25.974;2023-04-02T09:38:23;100177.19;;;16.67;53.72
42169;BME280;27838;43.858;25.974;2023-04-02T09:40:59;100176.16;;;16.71;53.77
42169;BME280;27838;43.858;25.974;2023-04-02T09:43:31;100174.41;;;16.70;53.68
42169;BME280;27838;43.858;25.974;2023-04-02T09:48:42;100182.44;;;16.67;53.81
42169;BME280;27838;43.858;25.974;2023-04-02T09:51:18;100188.13;;;16.55;52.84
42169;BME280;27838;43.858;25.974;2023-04-02T09:56:30;100181.84;;;16.59;53.11
42169;BME280;27838;43.858;25.974;2023-04-02T09:59:04;100187.91;;;16.61;52.70
42169;BME280;27838;43.858;25.974;2023-04-02T10:01:37;100182.63;;;16.61;52.81
42169;BME280;27838;43.858;25.974;2023-04-02T10:04:33;100185.88;;;16.69;52.50
42169;BME280;27838;43.858;25.974;2023-04-02T10:06:52;100184.69;;;16.78;52.65
42169;BME280;27838;43.858;25.974;2023-04-02T10:09:36;100182.88;;;16.80;52.69
42169;BME280;27838;43.858;25.974;2023-04-02T10:12:06;100185.38;;;16.85;52.23
42169;BME280;27838;43.858;25.974;2023-04-02T10:14:42;100189.63;;;16.89;52.60
42169;BME280;27838;43.858;25.974;2023-04-02T10:17:23;100193.06;;;16.91;52.58
42169;BME280;27838;43.858;25.974;2023-04-02T10:19:55;100193.75;;;16.96;52.83
42169;BME280;27838;43.858;25.974;2023-04-02T10:22:26;100200.91;;;16.92;51.50
42169;BME280;27838;43.858;25.974;2023-04-02T10:24:53;100196.50;;;16.93;52.14
42169;BME280;27838;43.858;25.974;2023-04-02T10:35:39;100198.50;;;17.11;52.04
42169;BME280;27838;43.858;25.974;2023-04-02T10:46:37;100201.06;;;17.13;52.91
42169;BME280;27838;43.858;25.974;2023-04-02T10:52:04;100194.53;;;17.25;52.83
42169;BME280;27838;43.858;25.974;2023-04-02T10:54:49;100186.31;;;17.32;52.16
42169;BME280;27838;43.858;25.974;2023-04-02T11:00:02;100185.94;;;17.43;53.25
42169;BME280;27838;43.858;25.974;2023-04-02T11:05:34;100186.44;;;17.77;52.31
42169;BME280;27838;43.858;25.974;2023-04-02T11:10:48;100179.50;;;17.98;51.81
42169;BME280;27838;43.858;25.974;2023-04-02T11:13:21;100181.66;;;18.10;51.71
42169;BME280;27838;43.858;25.974;2023-04-02T11:15:49;100180.47;;;18.17;51.33
42169;BME280;27838;43.858;25.974;2023-04-02T11:18:28;100181.03;;;18.25;50.86
42169;BME280;27838;43.858;25.974;2023-04-02T11:21:03;100169.47;;;18.29;51.00
42169;BME280;27838;43.858;25.974;2023-04-02T11:23:54;100169.41;;;18.52;50.80
42169;BME280;27838;43.858;25.974;2023-04-02T11:26:35;100170.56;;;18.87;49.86
42169;BME280;27838;43.858;25.974;2023-04-02T11:29:24;100169.91;;;19.02;50.02
42169;BME280;27838;43.858;25.974;2023-04-02T11:37:09;100172.19;;;19.31;48.15
42169;BME280;27838;43.858;25.974;2023-04-02T11:39:54;100164.56;;;19.43;48.38
42169;BME280;27838;43.858;25.974;2023-04-02T11:42:23;100160.66;;;19.52;46.14
42169;BME280;27838;43.858;25.974;2023-04-02T11:44:52;100154.66;;;19.68;44.83
42169;BME280;27838;43.858;25.974;2023-04-02T11:47:23;100153.31;;;19.78;44.09
42169;BME280;27838;43.858;25.974;2023-04-02T11:52:22;100141.72;;;19.99;43.97
42169;BME280;27838;43.858;25.974;2023-04-02T11:55:04;100137.00;;;20.06;42.32
42169;BME280;27838;43.858;25.974;2023-04-02T12:08:39;100146.75;;;20.41;41.21
42169;BME280;27838;43.858;25.974;2023-04-02T12:11:12;100139.34;;;20.30;40.94
42169;BME280;27838;43.858;25.974;2023-04-02T12:16:10;100139.06;;;19.99;42.07
42169;BME280;27838;43.858;25.974;2023-04-02T12:18:43;100130.34;;;19.97;42.80
42169;BME280;27838;43.858;25.974;2023-04-02T12:21:16;100127.97;;;20.10;42.84
42169;BME280;27838;43.858;25.974;2023-04-02T12:23:47;100129.81;;;20.08;42.55
42169;BME280;27838;43.858;25.974;2023-04-02T12:26:30;100132.81;;;20.00;41.19
42169;BME280;27838;43.858;25.974;2023-04-02T12:29:27;100134.00;;;19.95;42.07
42169;BME280;27838;43.858;25.974;2023-04-02T12:31:56;100121.44;;;19.81;42.65
42169;BME280;27838;43.858;25.974;2023-04-02T12:34:25;100129.44;;;19.79;42.54
42169;BME280;27838;43.858;25.974;2023-04-02T12:37:00;100126.78;;;19.79;43.07
42169;BME280;27838;43.858;25.974;2023-04-02T12:39:29;100133.72;;;19.82;42.53
42169;BME280;27838;43.858;25.974;2023-04-02T12:41:55;100137.28;;;19.81;41.89
42169;BME280;27838;43.858;25.974;2023-04-02T12:44:29;100127.44;;;19.85;42.71
42169;BME280;27838;43.858;25.974;2023-04-02T12:46:57;100126.50;;;19.86;41.60
42169;BME280;27838;43.858;25.974;2023-04-02T12:49:29;100125.59;;;20.04;41.54
42169;BME280;27838;43.858;25.974;2023-04-02T12:51:58;100118.94;;;20.14;41.24
42169;BME280;27838;43.858;25.974;2023-04-02T12:54:27;100125.81;;;20.18;39.94
42169;BME280;27838;43.858;25.974;2023-04-02T12:59:47;100116.47;;;20.29;39.62
42169;BME280;27838;43.858;25.974;2023-04-02T13:02:25;100122.69;;;20.45;39.49
42169;BME280;27838;43.858;25.974;2023-04-02T13:04:54;100117.44;;;20.63;39.41
42169;BME280;27838;43.858;25.974;2023-04-02T13:07:23;100119.91;;;20.48;38.34
42169;BME280;27838;43.858;25.974;2023-04-02T13:10:37;100109.25;;;20.32;39.34
42169;BME280;27838;43.858;25.974;2023-04-02T13:12:39;100126.75;;;20.35;39.44
42169;BME280;27838;43.858;25.974;2023-04-02T13:15:30;100119.13;;;20.29;39.63
42169;BME280;27838;43.858;25.974;2023-04-02T13:20:35;100120.97;;;20.27;39.71
42169;BME280;27838;43.858;25.974;2023-04-02T13:25:56;100098.88;;;20.45;40.43
42169;BME280;27838;43.858;25.974;2023-04-02T13:28:24;100115.41;;;20.68;40.21
42169;BME280;27838;43.858;25.974;2023-04-02T13:30:50;100111.84;;;20.69;39.35
42169;BME280;27838;43.858;25.974;2023-04-02T13:33:17;100106.75;;;20.64;38.18
42169;BME280;27838;43.858;25.974;2023-04-02T13:35:44;100111.41;;;20.59;38.29
42169;BME280;27838;43.858;25.974;2023-04-02T13:38:11;100107.47;;;20.68;38.85
42169;BME280;27838;43.858;25.974;2023-04-02T13:40:38;100104.59;;;20.72;38.94
42169;BME280;27838;43.858;25.974;2023-04-02T13:43:06;100114.00;;;20.78;39.15
42169;BME280;27838;43.858;25.974;2023-04-02T13:45:37;100103.25;;;20.81;37.09
42169;BME280;27838;43.858;25.974;2023-04-02T13:48:05;100095.72;;;20.89;37.01
42169;BME280;27838;43.858;25.974;2023-04-02T13:50:33;100100.09;;;20.90;36.92
42169;BME280;27838;43.858;25.974;2023-04-02T13:53:06;100095.41;;;20.96;36.62
42169;BME280;27838;43.858;25.974;2023-04-02T13:55:38;100087.41;;;20.97;36.95
42169;BME280;27838;43.858;25.974;2023-04-02T13:58:07;100089.66;;;20.87;36.56
42169;BME280;27838;43.858;25.974;2023-04-02T14:00:35;100090.00;;;20.81;36.37
42169;BME280;27838;43.858;25.974;2023-04-02T14:03:11;100097.94;;;20.81;37.04
42169;BME280;27838;43.858;25.974;2023-04-02T14:11:25;100087.78;;;20.89;36.37
42169;BME280;27838;43.858;25.974;2023-04-02T14:24:34;100081.25;;;20.79;36.55
42169;BME280;27838;43.858;25.974;2023-04-02T14:30:16;100086.75;;;20.76;37.08
42169;BME280;27838;43.858;25.974;2023-04-02T14:33:00;100080.81;;;20.71;36.96
42169;BME280;27838;43.858;25.974;2023-04-02T14:35:37;100087.13;;;20.68;37.25
42169;BME280;27838;43.858;25.974;2023-04-02T14:43:44;100090.16;;;20.61;37.79
42169;BME280;27838;43.858;25.974;2023-04-02T14:46:11;100088.31;;;20.63;37.67
42169;BME280;27838;43.858;25.974;2023-04-02T14:49:00;100094.59;;;20.60;37.35
42169;BME280;27838;43.858;25.974;2023-04-02T14:51:47;100087.47;;;20.62;37.19
42169;BME280;27838;43.858;25.974;2023-04-02T15:05:23;100090.31;;;20.58;37.68
42169;BME280;27838;43.858;25.974;2023-04-02T15:07:59;100094.81;;;20.55;37.87
42169;BME280;27838;43.858;25.974;2023-04-02T15:13:30;100096.44;;;20.41;38.50
42169;BME280;27838;43.858;25.974;2023-04-02T15:16:28;100109.75;;;20.39;38.65
42169;BME280;27838;43.858;25.974;2023-04-02T15:18:58;100105.63;;;20.33;38.68
42169;BME280;27838;43.858;25.974;2023-04-02T15:24:18;100114.75;;;20.28;39.17
42169;BME280;27838;43.858;25.974;2023-04-02T15:29:48;100125.03;;;20.16;39.14
42169;BME280;27838;43.858;25.974;2023-04-02T15:32:37;100120.03;;;20.10;39.16
42169;BME280;27838;43.858;25.974;2023-04-02T15:37:54;100120.56;;;19.99;39.14
42169;BME280;27838;43.858;25.974;2023-04-02T15:43:19;100127.78;;;19.96;39.10
42169;BME280;27838;43.858;25.974;2023-04-02T15:45:52;100134.84;;;19.95;39.10
42169;BME280;27838;43.858;25.974;2023-04-02T15:49:12;100139.34;;;19.93;39.24
42169;BME280;27838;43.858;25.974;2023-04-02T16:00:29;100143.47;;;19.82;39.77
42169;BME280;27838;43.858;25.974;2023-04-02T16:03:16;100128.84;;;19.73;39.54
42169;BME280;27838;43.858;25.974;2023-04-02T16:09:12;100145.13;;;19.63;40.43
42169;BME280;27838;43.858;25.974;2023-04-02T16:11:40;100161.72;;;19.67;40.65
42169;BME280;27838;43.858;25.974;2023-04-02T16:14:14;100160.84;;;19.67;40.78
42169;BME280;27838;43.858;25.974;2023-04-02T16:16:45;100160.16;;;19.63;41.11
42169;BME280;27838;43.858;25.974;2023-04-02T16:19:34;100176.00;;;19.63;41.45
42169;BME280;27838;43.858;25.974;2023-04-02T16:22:27;100172.06;;;19.53;41.81
42169;BME280;27838;43.858;25.974;2023-04-02T16:25:13;100176.44;;;19.54;42.04
42169;BME280;27838;43.858;25.974;2023-04-02T16:27:50;100171.16;;;19.54;42.24
42169;BME280;27838;43.858;25.974;2023-04-02T16:30:28;100180.00;;;19.53;42.38
42169;BME280;27838;43.858;25.974;2023-04-02T16:33:35;100180.13;;;19.50;42.42
42169;BME280;27838;43.858;25.974;2023-04-02T16:42:53;100193.84;;;19.39;43.05